Tinian, Northern Mariana Islands
Current Conditions -  °F | °C
As of 7:50 PM on Wednesday 22 Oct 2014 (Local Time) from PGWT Reporting Station
Few Clouds Few Clouds  
Wind Chill: 79°   Ceiling: Unl
Heat Index: 82°   Visibility: 7mi
Dew Point: 75°   Wind: 5mph
Humidity: 89%   Direction: 40°NE
Pressure: 29.8"   Gusts: NA
Location:  14.96°N, 145.63°E
Report Text: PGWT 220950Z 04004KT 7SM FEW015 FEW150 26/24 A2980 RMK LAST
Loading
Personal Weather Stations






























Interactive Weather Map
Tropical Storm Tracking
New forecast layout! Learn more

10-Day Weather Forecast

Advertisements
Track Severe Weather on mobile